Time,TemperatureF,DewpointF,PressureIn,WindDirection,WindDirectionDegrees,WindSpeedMPH,WindSpeedGustMPH,Humidity,HourlyPrecipIn,Conditions,Clouds,dailyrainin,SoftwareType,DateUTC
2013-02-22 00:07:00,45.0,42.8,29.90,West,274,3.0,10.0,92,0.00,,,0.00,meteohub,2013-02-22 06:07:00,
2013-02-22 00:17:00,44.6,42.6,29.91,NNW,341,2.0,7.0,93,0.00,,,0.00,meteohub,2013-02-22 06:17:00,
2013-02-22 00:22:00,44.6,42.6,29.91,North,5,1.0,5.0,93,0.00,,,0.00,meteohub,2013-02-22 06:22:00,
2013-02-22 00:27:00,44.4,42.4,29.91,NE,55,2.0,5.0,93,0.00,,,0.00,meteohub,2013-02-22 06:27:00,
2013-02-22 00:32:00,44.4,42.4,29.92,NNE,19,1.0,5.0,93,0.00,,,0.00,meteohub,2013-02-22 06:32:00,
2013-02-22 00:42:00,44.1,42.1,29.93,NNW,337,3.0,7.0,93,0.00,,,0.00,meteohub,2013-02-22 06:42:00,
2013-02-22 00:47:00,44.1,41.9,29.93,NNE,29,1.0,7.0,92,0.00,,,0.00,meteohub,2013-02-22 06:47:00,
2013-02-22 00:52:00,43.9,41.7,29.93,NE,40,3.0,5.0,92,0.00,,,0.00,meteohub,2013-02-22 06:52:00,
2013-02-22 00:57:00,43.9,41.7,29.94,NE,40,3.0,5.0,92,0.00,,,0.00,meteohub,2013-02-22 06:57:00,
2013-02-22 01:02:00,43.5,41.0,29.94,NE,53,0.0,5.0,91,0.00,,,0.00,meteohub,2013-02-22 07:02:00,
2013-02-22 01:12:00,43.2,40.6,29.95,NE,48,3.0,6.0,91,0.00,,,0.00,meteohub,2013-02-22 07:12:00,
2013-02-22 01:17:00,43.2,41.0,29.94,NE,46,5.0,6.0,92,0.00,,,0.00,meteohub,2013-02-22 07:17:00,
2013-02-22 01:27:00,42.8,40.6,29.94,ENE,64,4.0,7.0,92,0.00,,,0.00,meteohub,2013-02-22 07:27:00,
2013-02-22 01:37:00,42.6,40.5,29.93,ENE,72,2.0,6.0,92,0.00,,,0.00,meteohub,2013-02-22 07:37:00,
2013-02-22 01:42:00,42.6,40.5,29.94,NE,34,2.0,5.0,92,0.00,,,0.00,meteohub,2013-02-22 07:42:00,
2013-02-22 01:47:00,42.4,40.3,29.94,NE,46,4.0,9.0,92,0.00,,,0.00,meteohub,2013-02-22 07:47:00,
2013-02-22 01:52:00,42.4,40.3,29.93,NNE,23,2.0,9.0,92,0.00,,,0.00,meteohub,2013-02-22 07:52:00,
2013-02-22 01:57:00,42.3,40.5,29.94,NE,42,0.0,9.0,93,0.00,,,0.00,meteohub,2013-02-22 07:57:00,
2013-02-22 02:07:00,42.1,40.3,29.94,NE,42,1.0,7.0,93,0.00,,,0.00,meteohub,2013-02-22 08:07:00,
2013-02-22 02:12:00,41.9,40.1,29.94,NE,43,0.0,4.0,93,0.00,,,0.00,meteohub,2013-02-22 08:12:00,
2013-02-22 02:17:00,41.7,39.9,29.94,NE,43,1.0,4.0,93,0.00,,,0.00,meteohub,2013-02-22 08:17:00,
2013-02-22 02:22:00,41.7,39.9,29.94,NE,43,1.0,4.0,93,0.00,,,0.00,meteohub,2013-02-22 08:22:00,
2013-02-22 02:27:00,41.5,39.7,29.94,NE,43,1.0,3.0,93,0.00,,,0.00,meteohub,2013-02-22 08:27:00,
2013-02-22 02:32:00,41.4,39.6,29.93,NE,43,1.0,3.0,93,0.00,,,0.00,meteohub,2013-02-22 08:32:00,
2013-02-22 02:37:00,41.2,39.6,29.94,NE,40,1.0,3.0,94,0.00,,,0.00,meteohub,2013-02-22 08:37:00,
2013-02-22 02:42:00,41.2,39.6,29.94,NE,40,1.0,4.0,94,0.00,,,0.00,meteohub,2013-02-22 08:42:00,
2013-02-22 02:47:00,41.0,39.4,29.94,NE,41,2.0,4.0,94,0.00,,,0.00,meteohub,2013-02-22 08:47:00,
2013-02-22 02:52:00,40.8,39.2,29.94,NNW,340,2.0,2.0,94,0.00,,,0.00,meteohub,2013-02-22 08:52:00,
2013-02-22 02:57:00,41.0,39.7,29.94,NW,323,3.0,4.0,95,0.00,,,0.00,meteohub,2013-02-22 08:57:00,
2013-02-22 03:02:00,41.0,39.7,29.94,North,350,2.0,5.0,95,0.00,,,0.00,meteohub,2013-02-22 09:02:00,
2013-02-22 03:07:00,41.0,39.7,29.94,North,11,4.0,5.0,95,0.00,,,0.00,meteohub,2013-02-22 09:07:00,
2013-02-22 03:12:00,41.0,39.7,29.94,North,0,2.0,5.0,95,0.00,,,0.00,meteohub,2013-02-22 09:12:00,
2013-02-22 03:17:00,40.8,39.6,29.94,NW,315,4.0,5.0,95,0.00,,,0.00,meteohub,2013-02-22 09:17:00,
2013-02-22 03:22:00,40.6,39.4,29.94,NW,305,3.0,6.0,95,0.00,,,0.00,meteohub,2013-02-22 09:22:00,
2013-02-22 03:27:00,40.6,39.4,29.94,NW,322,4.0,7.0,95,0.00,,,0.00,meteohub,2013-02-22 09:27:00,
2013-02-22 03:32:00,40.6,39.4,29.94,NW,309,2.0,7.0,95,0.00,,,0.00,meteohub,2013-02-22 09:32:00,
2013-02-22 03:37:00,40.5,39.2,29.94,NW,306,4.0,7.0,95,0.00,,,0.00,meteohub,2013-02-22 09:37:00,
2013-02-22 03:42:00,40.5,39.2,29.94,NNE,14,2.0,8.0,95,0.00,,,0.00,meteohub,2013-02-22 09:42:00,
2013-02-22 03:47:00,40.5,39.2,29.95,North,355,3.0,8.0,95,0.00,,,0.00,meteohub,2013-02-22 09:47:00,
2013-02-22 03:52:00,40.3,39.0,29.95,NW,321,2.0,7.0,95,0.00,,,0.00,meteohub,2013-02-22 09:52:00,
2013-02-22 03:57:00,40.3,38.7,29.96,North,0,2.0,8.0,94,0.00,,,0.00,meteohub,2013-02-22 09:57:00,
2013-02-22 04:02:00,40.3,38.7,29.96,NNW,343,2.0,8.0,94,0.00,,,0.00,meteohub,2013-02-22 10:02:00,
2013-02-22 04:07:00,40.3,38.7,29.98,NNE,18,1.0,7.0,94,0.00,,,0.00,meteohub,2013-02-22 10:07:00,
2013-02-22 04:12:00,40.1,38.5,29.99,NNW,335,0.0,6.0,94,0.00,,,0.00,meteohub,2013-02-22 10:12:00,
2013-02-22 04:22:00,39.7,37.9,30.01,NNW,335,0.0,4.0,93,0.00,,,0.00,meteohub,2013-02-22 10:22:00,
2013-02-22 04:27:00,39.7,38.1,30.01,NW,321,3.0,3.0,94,0.00,,,0.00,meteohub,2013-02-22 10:27:00,
2013-02-22 04:32:00,40.1,38.8,30.01,NW,321,2.0,4.0,95,0.00,,,0.00,meteohub,2013-02-22 10:32:00,
2013-02-22 04:37:00,40.1,38.8,30.01,WNW,294,1.0,6.0,95,0.00,,,0.00,meteohub,2013-02-22 10:37:00,
2013-02-22 04:42:00,40.1,38.3,30.01,NNE,13,1.0,6.0,93,0.00,,,0.00,meteohub,2013-02-22 10:42:00,
2013-02-22 04:47:00,39.9,38.1,30.01,NNW,348,3.0,6.0,93,0.00,,,0.00,meteohub,2013-02-22 10:47:00,
2013-02-22 04:52:00,39.9,37.8,30.01,NNW,327,5.0,6.0,92,0.00,,,0.00,meteohub,2013-02-22 10:52:00,
2013-02-22 04:57:00,39.7,37.4,30.01,North,0,1.0,6.0,91,0.00,,,0.00,meteohub,2013-02-22 10:57:00,
2013-02-22 05:07:00,39.6,36.9,30.01,NW,319,3.0,6.0,90,0.00,,,0.00,meteohub,2013-02-22 11:07:00,
2013-02-22 05:12:00,39.4,36.7,30.01,North,355,2.0,6.0,90,0.00,,,0.00,meteohub,2013-02-22 11:12:00,
2013-02-22 05:22:00,39.0,36.1,30.02,NW,304,3.0,10.0,89,0.00,,,0.00,meteohub,2013-02-22 11:22:00,
2013-02-22 05:27:00,38.8,36.0,30.02,North,5,3.0,10.0,89,0.00,,,0.00,meteohub,2013-02-22 11:27:00,
2013-02-22 05:32:00,38.8,35.6,30.02,NNW,344,3.0,6.0,88,0.00,,,0.00,meteohub,2013-02-22 11:32:00,
2013-02-22 05:37:00,38.7,35.4,30.03,North,5,3.0,6.0,88,0.00,,,0.00,meteohub,2013-02-22 11:37:00,
2013-02-22 05:42:00,38.7,35.1,30.03,NW,315,3.0,8.0,87,0.00,,,0.00,meteohub,2013-02-22 11:42:00,
2013-02-22 05:47:00,38.5,34.9,30.03,NNW,333,4.0,8.0,87,0.00,,,0.00,meteohub,2013-02-22 11:47:00,
2013-02-22 05:52:00,38.5,34.9,30.04,NW,313,4.0,8.0,87,0.00,,,0.00,meteohub,2013-02-22 11:52:00,
2013-02-22 05:57:00,38.3,34.7,30.03,NNW,346,1.0,8.0,87,0.00,,,0.00,meteohub,2013-02-22 11:57:00,
2013-02-22 06:02:00,38.1,34.5,30.02,NNW,340,4.0,8.0,87,0.00,,,0.00,meteohub,2013-02-22 12:02:00,
2013-02-22 06:07:00,38.1,34.5,30.03,WNW,294,3.0,8.0,87,0.00,,,0.00,meteohub,2013-02-22 12:07:00,
2013-02-22 06:12:00,37.9,34.3,30.03,NW,316,7.0,8.0,87,0.00,,,0.00,meteohub,2013-02-22 12:12:00,
2013-02-22 06:17:00,37.9,34.7,30.03,NNW,342,3.0,8.0,88,0.00,,,0.00,meteohub,2013-02-22 12:17:00,
2013-02-22 06:27:00,37.8,34.5,30.04,NNW,334,2.0,9.0,88,0.00,,,0.00,meteohub,2013-02-22 12:27:00,
2013-02-22 06:32:00,37.6,34.3,30.05,NNE,20,2.0,9.0,88,0.00,,,0.00,meteohub,2013-02-22 12:32:00,
2013-02-22 06:37:00,37.4,34.2,30.06,NW,306,1.0,6.0,88,0.00,,,0.00,meteohub,2013-02-22 12:37:00,
2013-02-22 06:42:00,37.2,34.3,30.07,NNW,340,2.0,6.0,89,0.00,,,0.00,meteohub,2013-02-22 12:42:00,
2013-02-22 06:47:00,37.0,34.2,30.08,NNW,340,1.0,5.0,89,0.00,,,0.00,meteohub,2013-02-22 12:47:00,
2013-02-22 06:52:00,37.0,34.2,30.08,NW,317,2.0,5.0,89,0.00,,,0.00,meteohub,2013-02-22 12:52:00,
2013-02-22 06:57:00,36.9,34.0,30.08,NNW,327,3.0,4.0,89,0.00,,,0.00,meteohub,2013-02-22 12:57:00,
2013-02-22 07:02:00,36.9,34.0,30.09,NNW,327,1.0,4.0,89,0.00,,,0.00,meteohub,2013-02-22 13:02:00,
2013-02-22 07:07:00,36.9,34.0,30.09,NNW,333,1.0,4.0,89,0.00,,,0.00,meteohub,2013-02-22 13:07:00,
2013-02-22 07:12:00,36.7,33.8,30.09,NNW,333,1.0,3.0,89,0.00,,,0.00,meteohub,2013-02-22 13:12:00,
2013-02-22 07:17:00,36.7,33.8,30.09,NNW,333,0.0,3.0,89,0.00,,,0.00,meteohub,2013-02-22 13:17:00,
2013-02-22 07:22:00,36.5,33.8,30.09,NNW,333,0.0,3.0,90,0.00,,,0.00,meteohub,2013-02-22 13:22:00,
2013-02-22 07:27:00,36.3,33.6,30.09,NNW,333,1.0,2.0,90,0.00,,,0.00,meteohub,2013-02-22 13:27:00,
2013-02-22 07:32:00,36.3,33.6,30.09,NNW,333,1.0,2.0,90,0.00,,,0.00,meteohub,2013-02-22 13:32:00,
2013-02-22 07:37:00,36.3,34.0,30.10,NNW,333,0.0,2.0,91,0.00,,,0.00,meteohub,2013-02-22 13:37:00,
2013-02-22 07:42:00,36.3,34.0,30.10,NNW,333,0.0,2.0,91,0.00,,,0.00,meteohub,2013-02-22 13:42:00,
2013-02-22 07:47:00,36.5,34.2,30.11,NNW,333,0.0,2.0,91,0.00,,,0.00,meteohub,2013-02-22 13:47:00,
2013-02-22 07:52:00,36.7,34.3,30.11,NNW,327,1.0,2.0,91,0.00,,,0.00,meteohub,2013-02-22 13:52:00,
2013-02-22 07:57:00,36.7,34.3,30.11,NW,325,3.0,3.0,91,0.00,,,0.00,meteohub,2013-02-22 13:57:00,
2013-02-22 08:02:00,36.9,34.5,30.11,NNW,343,3.0,4.0,91,0.00,,,0.00,meteohub,2013-02-22 14:02:00,
2013-02-22 08:07:00,37.0,34.7,30.11,NW,304,2.0,5.0,91,0.00,,,0.00,meteohub,2013-02-22 14:07:00,
2013-02-22 08:12:00,37.0,34.7,30.11,NW,307,1.0,5.0,91,0.00,,,0.00,meteohub,2013-02-22 14:12:00,
2013-02-22 08:17:00,37.2,34.5,30.11,NW,320,2.0,5.0,90,0.00,,,0.00,meteohub,2013-02-22 14:17:00,
2013-02-22 08:22:00,37.2,34.5,30.11,North,9,3.0,5.0,90,0.00,,,0.00,meteohub,2013-02-22 14:22:00,
2013-02-22 08:32:00,37.6,34.7,30.11,NNW,331,4.0,7.0,89,0.00,,,0.00,meteohub,2013-02-22 14:32:00,
2013-02-22 08:42:00,37.6,34.3,30.10,North,5,2.0,7.0,88,0.00,,,0.00,meteohub,2013-02-22 14:42:00,
2013-02-22 08:47:00,37.6,34.0,30.11,NNW,346,3.0,7.0,87,0.00,,,0.00,meteohub,2013-02-22 14:47:00,
2013-02-22 08:52:00,37.8,34.2,30.11,North,350,3.0,7.0,87,0.00,,,0.00,meteohub,2013-02-22 14:52:00,
2013-02-22 08:57:00,37.9,34.2,30.11,North,355,5.0,7.0,86,0.00,,,0.00,meteohub,2013-02-22 14:57:00,
2013-02-22 09:02:00,37.8,33.6,30.11,NNE,12,3.0,7.0,85,0.00,,,0.00,meteohub,2013-02-22 15:02:00,
2013-02-22 09:07:00,37.8,33.4,30.11,NNW,340,2.0,7.0,84,0.00,,,0.00,meteohub,2013-02-22 15:07:00,
2013-02-22 09:12:00,37.9,33.3,30.11,NNE,18,4.0,8.0,83,0.00,,,0.00,meteohub,2013-02-22 15:12:00,
2013-02-22 09:17:00,37.9,33.6,30.11,ENE,70,4.0,8.0,84,0.00,,,0.00,meteohub,2013-02-22 15:17:00,
2013-02-22 09:22:00,38.1,33.1,30.11,NW,320,3.0,8.0,82,0.00,,,0.00,meteohub,2013-02-22 15:22:00,
2013-02-22 09:32:00,38.7,33.1,30.10,North,355,3.0,8.0,80,0.00,,,0.00,meteohub,2013-02-22 15:32:00,
2013-02-22 09:37:00,38.5,32.2,30.11,NE,42,3.0,8.0,78,0.00,,,0.00,meteohub,2013-02-22 15:37:00,
2013-02-22 09:42:00,38.3,32.4,30.12,North,349,3.0,8.0,79,0.00,,,0.00,meteohub,2013-02-22 15:42:00,
2013-02-22 09:52:00,38.5,32.9,30.11,North,355,2.0,8.0,80,0.00,,,0.00,meteohub,2013-02-22 15:52:00,
2013-02-22 09:57:00,38.8,32.2,30.11,North,355,3.0,7.0,77,0.00,,,0.00,meteohub,2013-02-22 15:57:00,
2013-02-22 10:07:00,39.0,32.2,30.11,NW,304,4.0,10.0,76,0.00,,,0.00,meteohub,2013-02-22 16:07:00,
2013-02-22 10:12:00,39.0,32.7,30.11,WNW,286,4.0,10.0,78,0.00,,,0.00,meteohub,2013-02-22 16:12:00,
2013-02-22 10:17:00,39.6,32.9,30.11,North,355,3.0,7.0,77,0.00,,,0.00,meteohub,2013-02-22 16:17:00,
2013-02-22 10:22:00,40.3,33.6,30.11,North,0,6.0,7.0,77,0.00,,,0.00,meteohub,2013-02-22 16:22:00,
2013-02-22 10:27:00,40.6,34.7,30.11,North,5,5.0,7.0,79,0.00,,,0.00,meteohub,2013-02-22 16:27:00,
2013-02-22 10:37:00,41.9,33.8,30.11,NNW,331,7.0,7.0,73,0.00,,,0.00,meteohub,2013-02-22 16:37:00,
2013-02-22 10:42:00,42.1,33.8,30.11,NW,323,3.0,8.0,72,0.00,,,0.00,meteohub,2013-02-22 16:42:00,
2013-02-22 10:52:00,42.3,33.8,30.09,NNW,340,5.0,10.0,72,0.00,,,0.00,meteohub,2013-02-22 16:52:00,
2013-02-22 10:57:00,42.6,34.5,30.09,NW,323,2.0,10.0,73,0.00,,,0.00,meteohub,2013-02-22 16:57:00,
2013-02-22 11:02:00,43.3,34.9,30.09,NW,318,3.0,8.0,72,0.00,,,0.00,meteohub,2013-02-22 17:02:00,
2013-02-22 11:07:00,43.9,34.7,30.09,NNE,25,4.0,8.0,70,0.00,,,0.00,meteohub,2013-02-22 17:07:00,
2013-02-22 11:12:00,44.6,35.8,30.09,NNE,22,7.0,8.0,71,0.00,,,0.00,meteohub,2013-02-22 17:12:00,
2013-02-22 11:17:00,45.0,35.8,30.09,NW,315,4.0,8.0,70,0.00,,,0.00,meteohub,2013-02-22 17:17:00,
2013-02-22 11:22:00,45.0,35.1,30.09,NNE,25,4.0,8.0,68,0.00,,,0.00,meteohub,2013-02-22 17:22:00,
2013-02-22 11:32:00,45.3,34.7,30.09,NW,322,3.0,9.0,66,0.00,,,0.00,meteohub,2013-02-22 17:32:00,
2013-02-22 11:37:00,44.8,34.9,30.09,NW,304,5.0,9.0,68,0.00,,,0.00,meteohub,2013-02-22 17:37:00,
2013-02-22 11:42:00,44.8,34.9,30.09,NNE,15,3.0,8.0,68,0.00,,,0.00,meteohub,2013-02-22 17:42:00,
2013-02-22 11:47:00,44.2,33.6,30.09,NNW,340,5.0,8.0,66,0.00,,,0.00,meteohub,2013-02-22 17:47:00,
2013-02-22 11:52:00,43.9,34.0,30.08,NNW,336,3.0,8.0,68,0.00,,,0.00,meteohub,2013-02-22 17:52:00,
2013-02-22 12:02:00,44.2,34.0,30.07,NNW,337,3.0,9.0,67,0.00,,,0.00,meteohub,2013-02-22 18:02:00,
2013-02-22 12:12:00,45.0,34.0,30.08,WNW,301,3.0,8.0,65,0.00,,,0.00,meteohub,2013-02-22 18:12:00,
2013-02-22 12:17:00,45.5,35.6,30.07,NW,323,1.0,8.0,68,0.00,,,0.00,meteohub,2013-02-22 18:17:00,
2013-02-22 12:27:00,46.2,34.7,30.07,North,5,4.0,8.0,64,0.00,,,0.00,meteohub,2013-02-22 18:27:00,
2013-02-22 12:32:00,46.4,35.6,30.07,North,355,3.0,8.0,66,0.00,,,0.00,meteohub,2013-02-22 18:32:00,
2013-02-22 12:37:00,46.8,35.6,30.07,WNW,290,1.0,8.0,65,0.00,,,0.00,meteohub,2013-02-22 18:37:00,
2013-02-22 12:42:00,47.1,35.2,30.07,NNE,15,3.0,7.0,63,0.00,,,0.00,meteohub,2013-02-22 18:42:00,
2013-02-22 12:47:00,47.3,35.4,30.06,NNW,342,3.0,7.0,63,0.00,,,0.00,meteohub,2013-02-22 18:47:00,
2013-02-22 12:52:00,47.7,35.6,30.06,NNE,21,2.0,7.0,63,0.00,,,0.00,meteohub,2013-02-22 18:52:00,
2013-02-22 12:57:00,48.0,36.0,30.06,NNE,28,2.0,7.0,63,0.00,,,0.00,meteohub,2013-02-22 18:57:00,
2013-02-22 13:02:00,48.6,35.2,30.05,NNW,329,3.0,7.0,60,0.00,,,0.00,meteohub,2013-02-22 19:02:00,
2013-02-22 13:07:00,49.3,36.0,30.05,NNW,344,3.0,8.0,60,0.00,,,0.00,meteohub,2013-02-22 19:07:00,
2013-02-22 13:12:00,49.5,35.8,30.04,NW,307,4.0,8.0,59,0.00,,,0.00,meteohub,2013-02-22 19:12:00,
2013-02-22 13:17:00,49.8,36.5,30.04,NNE,12,6.0,8.0,60,0.00,,,0.00,meteohub,2013-02-22 19:17:00,
2013-02-22 13:22:00,49.8,36.1,30.04,NW,318,4.0,8.0,59,0.00,,,0.00,meteohub,2013-02-22 19:22:00,
2013-02-22 13:27:00,50.4,36.5,30.03,NNW,344,3.0,7.0,59,0.00,,,0.00,meteohub,2013-02-22 19:27:00,
2013-02-22 13:32:00,50.5,36.7,30.03,WNW,297,3.0,7.0,59,0.00,,,0.00,meteohub,2013-02-22 19:32:00,
2013-02-22 13:37:00,50.9,36.1,30.03,NNE,30,2.0,6.0,57,0.00,,,0.00,meteohub,2013-02-22 19:37:00,
2013-02-22 13:42:00,51.4,37.2,30.02,NW,306,3.0,9.0,58,0.00,,,0.00,meteohub,2013-02-22 19:42:00,
2013-02-22 13:52:00,52.2,36.9,30.02,NNE,13,5.0,8.0,56,0.00,,,0.00,meteohub,2013-02-22 19:52:00,
2013-02-22 13:57:00,51.6,36.0,30.02,NNW,344,4.0,12.0,55,0.00,,,0.00,meteohub,2013-02-22 19:57:00,
2013-02-22 14:02:00,51.4,35.8,30.01,NNW,348,4.0,12.0,55,0.00,,,0.00,meteohub,2013-02-22 20:02:00,
2013-02-22 14:07:00,51.3,35.2,30.01,North,355,3.0,8.0,54,0.00,,,0.00,meteohub,2013-02-22 20:07:00,
2013-02-22 14:12:00,51.8,35.6,30.01,NNW,343,3.0,8.0,54,0.00,,,0.00,meteohub,2013-02-22 20:12:00,
2013-02-22 14:22:00,52.0,34.3,30.01,NW,326,1.0,7.0,51,0.00,,,0.00,meteohub,2013-02-22 20:22:00,
2013-02-22 14:27:00,52.2,35.1,30.00,West,276,4.0,7.0,52,0.00,,,0.00,meteohub,2013-02-22 20:27:00,
2013-02-22 14:32:00,52.3,35.8,30.00,WNW,300,4.0,6.0,53,0.00,,,0.00,meteohub,2013-02-22 20:32:00,
2013-02-22 14:37:00,52.5,36.0,30.00,NE,42,2.0,10.0,53,0.00,,,0.00,meteohub,2013-02-22 20:37:00,
2013-02-22 14:42:00,52.5,34.3,30.00,North,0,4.0,10.0,50,0.00,,,0.00,meteohub,2013-02-22 20:42:00,
2013-02-22 14:47:00,52.5,34.3,30.00,NNW,338,3.0,9.0,50,0.00,,,0.00,meteohub,2013-02-22 20:47:00,
2013-02-22 14:52:00,52.5,34.3,30.00,West,281,3.0,9.0,50,0.00,,,0.00,meteohub,2013-02-22 20:52:00,
2013-02-22 15:02:00,52.3,33.8,29.99,NNW,342,5.0,9.0,49,0.00,,,0.00,meteohub,2013-02-22 21:02:00,
2013-02-22 15:07:00,52.2,34.2,29.99,North,355,3.0,9.0,50,0.00,,,0.00,meteohub,2013-02-22 21:07:00,
2013-02-22 15:17:00,52.0,34.0,29.99,NW,314,2.0,9.0,50,0.00,,,0.00,meteohub,2013-02-22 21:17:00,
2013-02-22 15:22:00,51.6,34.2,30.00,WNW,290,3.0,9.0,51,0.00,,,0.00,meteohub,2013-02-22 21:22:00,
2013-02-22 15:27:00,51.6,33.6,30.00,NW,317,1.0,6.0,50,0.00,,,0.00,meteohub,2013-02-22 21:27:00,
2013-02-22 15:32:00,52.0,33.4,30.00,East,91,2.0,6.0,49,0.00,,,0.00,meteohub,2013-02-22 21:32:00,
2013-02-22 15:37:00,52.2,34.2,30.00,WNW,288,2.0,7.0,50,0.00,,,0.00,meteohub,2013-02-22 21:37:00,
2013-02-22 15:42:00,52.2,33.1,30.00,West,276,2.0,7.0,48,0.00,,,0.00,meteohub,2013-02-22 21:42:00,
2013-02-22 15:52:00,52.3,34.2,30.01,WNW,302,4.0,8.0,50,0.00,,,0.00,meteohub,2013-02-22 21:52:00,
2013-02-22 15:57:00,52.5,34.9,30.01,WNW,294,5.0,7.0,51,0.00,,,0.00,meteohub,2013-02-22 21:57:00,
2013-02-22 16:02:00,52.5,34.3,30.01,NNW,342,2.0,7.0,50,0.00,,,0.00,meteohub,2013-02-22 22:02:00,
2013-02-22 16:07:00,52.5,34.3,30.01,North,350,2.0,7.0,50,0.00,,,0.00,meteohub,2013-02-22 22:07:00,
2013-02-22 16:12:00,52.2,33.6,30.01,WNW,291,5.0,7.0,49,0.00,,,0.00,meteohub,2013-02-22 22:12:00,
2013-02-22 16:22:00,51.6,34.2,30.01,NW,308,2.0,6.0,51,0.00,,,0.00,meteohub,2013-02-22 22:22:00,
2013-02-22 16:27:00,51.4,34.9,30.00,NW,313,3.0,6.0,53,0.00,,,0.00,meteohub,2013-02-22 22:27:00,
2013-02-22 16:32:00,51.3,34.7,30.01,WNW,295,3.0,7.0,53,0.00,,,0.00,meteohub,2013-02-22 22:32:00,
2013-02-22 16:42:00,50.7,33.8,30.01,NW,311,3.0,6.0,52,0.00,,,0.00,meteohub,2013-02-22 22:42:00,
2013-02-22 16:47:00,50.7,34.7,30.01,NW,317,2.0,5.0,54,0.00,,,0.00,meteohub,2013-02-22 22:47:00,
2013-02-22 16:57:00,50.4,33.8,30.01,NW,315,3.0,6.0,53,0.00,,,0.00,meteohub,2013-02-22 22:57:00,
2013-02-22 17:02:00,49.8,33.8,30.01,North,5,3.0,6.0,54,0.00,,,0.00,meteohub,2013-02-22 23:02:00,
2013-02-22 17:07:00,49.6,32.7,30.01,NNW,338,2.0,6.0,52,0.00,,,0.00,meteohub,2013-02-22 23:07:00,
2013-02-22 17:17:00,49.5,33.4,30.01,NNW,331,2.0,6.0,54,0.00,,,0.00,meteohub,2013-02-22 23:17:00,
2013-02-22 17:22:00,49.3,33.3,30.01,NW,313,2.0,5.0,54,0.00,,,0.00,meteohub,2013-02-22 23:22:00,
2013-02-22 17:27:00,48.9,33.1,30.02,North,355,2.0,5.0,54,0.00,,,0.00,meteohub,2013-02-22 23:27:00,
2013-02-22 17:37:00,48.6,32.7,30.02,NW,309,3.0,4.0,54,0.00,,,0.00,meteohub,2013-02-22 23:37:00,
2013-02-22 17:42:00,48.2,32.7,30.02,NW,321,2.0,4.0,55,0.00,,,0.00,meteohub,2013-02-22 23:42:00,
2013-02-22 17:47:00,48.0,33.1,30.02,NE,43,2.0,4.0,56,0.00,,,0.00,meteohub,2013-02-22 23:47:00,
2013-02-22 17:57:00,47.7,33.3,30.02,North,355,1.0,4.0,57,0.00,,,0.00,meteohub,2013-02-22 23:57:00,
2013-02-22 18:07:00,47.1,33.1,30.03,NNW,339,1.0,3.0,58,0.00,,,0.00,meteohub,2013-02-23 00:07:00,
2013-02-22 18:12:00,46.9,32.9,30.04,NW,305,1.0,3.0,58,0.00,,,0.00,meteohub,2013-02-23 00:12:00,
2013-02-22 18:17:00,46.8,33.3,30.04,NW,305,0.0,3.0,59,0.00,,,0.00,meteohub,2013-02-23 00:17:00,
2013-02-22 18:27:00,46.0,33.3,30.03,NW,305,2.0,3.0,61,0.00,,,0.00,meteohub,2013-02-23 00:27:00,
2013-02-22 18:32:00,45.7,33.1,30.03,NW,305,0.0,3.0,61,0.00,,,0.00,meteohub,2013-02-23 00:32:00,
2013-02-22 18:37:00,45.3,33.1,30.04,NW,305,1.0,2.0,62,0.00,,,0.00,meteohub,2013-02-23 00:37:00,
2013-02-22 18:42:00,45.0,33.1,30.04,North,355,2.0,2.0,63,0.00,,,0.00,meteohub,2013-02-23 00:42:00,
2013-02-22 18:47:00,44.8,33.3,30.04,NNW,337,1.0,3.0,64,0.00,,,0.00,meteohub,2013-02-23 00:47:00,
2013-02-22 18:52:00,44.2,32.9,30.04,NNW,337,1.0,3.0,64,0.00,,,0.00,meteohub,2013-02-23 00:52:00,
2013-02-22 18:57:00,44.1,32.7,30.04,NW,324,2.0,3.0,64,0.00,,,0.00,meteohub,2013-02-23 00:57:00,
2013-02-22 19:07:00,43.7,32.4,30.03,North,5,2.0,3.0,64,0.00,,,0.00,meteohub,2013-02-23 01:07:00,
2013-02-22 19:12:00,43.5,32.5,30.04,NW,305,1.0,3.0,65,0.00,,,0.00,meteohub,2013-02-23 01:12:00,
2013-02-22 19:17:00,43.5,32.5,30.04,NW,326,3.0,3.0,65,0.00,,,0.00,meteohub,2013-02-23 01:17:00,
2013-02-22 19:22:00,43.3,32.4,30.04,NNW,340,2.0,3.0,65,0.00,,,0.00,meteohub,2013-02-23 01:22:00,
2013-02-22 19:32:00,43.2,32.2,30.05,NW,321,1.0,4.0,65,0.00,,,0.00,meteohub,2013-02-23 01:32:00,
2013-02-22 19:37:00,43.2,32.5,30.05,NW,316,4.0,4.0,66,0.00,,,0.00,meteohub,2013-02-23 01:37:00,
2013-02-22 19:42:00,43.0,32.4,30.05,NNW,329,3.0,4.0,66,0.00,,,0.00,meteohub,2013-02-23 01:42:00,
2013-02-22 19:47:00,42.8,32.2,30.05,North,5,1.0,4.0,66,0.00,,,0.00,meteohub,2013-02-23 01:47:00,
2013-02-22 19:52:00,43.0,32.4,30.06,NW,323,3.0,4.0,66,0.00,,,0.00,meteohub,2013-02-23 01:52:00,
2013-02-22 19:57:00,43.0,32.4,30.06,NW,325,2.0,4.0,66,0.00,,,0.00,meteohub,2013-02-23 01:57:00,
2013-02-22 20:02:00,42.8,32.2,30.06,NW,308,2.0,4.0,66,0.00,,,0.00,meteohub,2013-02-23 02:02:00,
2013-02-22 20:07:00,42.6,32.4,30.06,NNW,329,2.0,5.0,67,0.00,,,0.00,meteohub,2013-02-23 02:07:00,
2013-02-22 20:12:00,42.6,32.4,30.06,NW,308,4.0,6.0,67,0.00,,,0.00,meteohub,2013-02-23 02:12:00,
2013-02-22 20:17:00,42.4,32.2,30.07,NW,322,3.0,6.0,67,0.00,,,0.00,meteohub,2013-02-23 02:17:00,
2013-02-22 20:22:00,42.4,31.8,30.07,NNW,329,3.0,6.0,66,0.00,,,0.00,meteohub,2013-02-23 02:22:00,
2013-02-22 20:27:00,42.3,32.2,30.07,WNW,302,2.0,7.0,67,0.00,,,0.00,meteohub,2013-02-23 02:27:00,
2013-02-22 20:37:00,42.1,32.4,30.08,NW,323,1.0,7.0,68,0.00,,,0.00,meteohub,2013-02-23 02:37:00,
2013-02-22 20:47:00,41.7,32.4,30.08,NW,315,1.0,4.0,69,0.00,,,0.00,meteohub,2013-02-23 02:47:00,
2013-02-22 20:52:00,41.7,32.4,30.08,NW,315,1.0,4.0,69,0.00,,,0.00,meteohub,2013-02-23 02:52:00,
2013-02-22 20:57:00,41.5,31.8,30.09,NNW,338,2.0,4.0,68,0.00,,,0.00,meteohub,2013-02-23 02:57:00,
2013-02-22 21:02:00,41.4,31.6,30.09,West,277,4.0,5.0,68,0.00,,,0.00,meteohub,2013-02-23 03:02:00,
2013-02-22 21:07:00,41.4,31.6,30.09,NW,307,2.0,6.0,68,0.00,,,0.00,meteohub,2013-02-23 03:07:00,
2013-02-22 21:12:00,41.2,31.8,30.10,WNW,300,3.0,6.0,69,0.00,,,0.00,meteohub,2013-02-23 03:12:00,
2013-02-22 21:22:00,41.0,31.6,30.10,NW,320,1.0,5.0,69,0.00,,,0.00,meteohub,2013-02-23 03:22:00,
2013-02-22 21:27:00,40.8,31.5,30.10,NW,315,1.0,5.0,69,0.00,,,0.00,meteohub,2013-02-23 03:27:00,
2013-02-22 21:32:00,40.8,31.8,30.10,NW,309,2.0,4.0,70,0.00,,,0.00,meteohub,2013-02-23 03:32:00,
2013-02-22 21:37:00,40.6,31.6,30.10,NNW,329,0.0,3.0,70,0.00,,,0.00,meteohub,2013-02-23 03:37:00,
2013-02-22 21:42:00,40.6,31.6,30.10,NNW,329,1.0,3.0,70,0.00,,,0.00,meteohub,2013-02-23 03:42:00,
2013-02-22 21:47:00,40.5,31.5,30.10,NNW,329,1.0,3.0,70,0.00,,,0.00,meteohub,2013-02-23 03:47:00,
2013-02-22 21:52:00,40.5,31.1,30.09,NNW,330,1.0,3.0,69,0.00,,,0.00,meteohub,2013-02-23 03:52:00,
2013-02-22 21:57:00,40.5,31.1,30.09,North,5,0.0,3.0,69,0.00,,,0.00,meteohub,2013-02-23 03:57:00,
2013-02-22 22:02:00,40.5,31.5,30.09,North,5,0.0,3.0,70,0.00,,,0.00,meteohub,2013-02-23 04:02:00,
2013-02-22 22:12:00,40.3,31.3,30.09,North,355,1.0,2.0,70,0.00,,,0.00,meteohub,2013-02-23 04:12:00,
2013-02-22 22:22:00,39.9,30.9,30.09,North,355,1.0,2.0,70,0.00,,,0.00,meteohub,2013-02-23 04:22:00,
2013-02-22 22:32:00,39.7,30.7,30.09,North,355,1.0,2.0,70,0.00,,,0.00,meteohub,2013-02-23 04:32:00,
2013-02-22 22:37:00,39.7,30.7,30.09,NW,322,2.0,3.0,70,0.00,,,0.00,meteohub,2013-02-23 04:37:00,
2013-02-22 22:42:00,39.7,30.7,30.08,NW,322,1.0,3.0,70,0.00,,,0.00,meteohub,2013-02-23 04:42:00,
2013-02-22 22:47:00,39.7,30.7,30.08,NNW,332,2.0,3.0,70,0.00,,,0.00,meteohub,2013-02-23 04:47:00,
2013-02-22 22:57:00,39.7,30.4,30.08,NNE,19,2.0,3.0,69,0.00,,,0.00,meteohub,2013-02-23 04:57:00,
2013-02-22 23:02:00,39.9,30.6,30.07,NNW,345,2.0,3.0,69,0.00,,,0.00,meteohub,2013-02-23 05:02:00,
2013-02-22 23:07:00,39.9,30.6,30.07,NNW,345,1.0,3.0,69,0.00,,,0.00,meteohub,2013-02-23 05:07:00,
2013-02-22 23:12:00,39.7,30.4,30.07,NNW,345,0.0,3.0,69,0.00,,,0.00,meteohub,2013-02-23 05:12:00,
2013-02-22 23:17:00,39.7,30.4,30.06,NE,48,0.0,3.0,69,0.00,,,0.00,meteohub,2013-02-23 05:17:00,
2013-02-22 23:22:00,39.6,30.2,30.06,NE,48,0.0,3.0,69,0.00,,,0.00,meteohub,2013-02-23 05:22:00,
2013-02-22 23:27:00,39.4,30.0,30.06,NE,48,1.0,3.0,69,0.00,,,0.00,meteohub,2013-02-23 05:27:00,
2013-02-22 23:32:00,39.4,30.4,30.06,NNE,24,1.0,3.0,70,0.00,,,0.00,meteohub,2013-02-23 05:32:00,
2013-02-22 23:42:00,39.0,30.0,30.07,NNW,328,3.0,3.0,70,0.00,,,0.00,meteohub,2013-02-23 05:42:00,
2013-02-22 23:52:00,39.0,30.0,30.08,NNW,327,1.0,3.0,70,0.00,,,0.00,meteohub,2013-02-23 05:52:00,
2013-02-22 23:57:00,39.0,30.0,30.08,NW,310,2.0,4.0,70,0.00,,,0.00,meteohub,2013-02-23 05:57:00,